Time;durP1;ratioP1;P1;durP2;ratioP2;P2;SDS_P1;SDS_P2;PMS_P1;PMS_P2;Temp;Humidity;BMP_temperature;BMP_pressure;BME280_temperature;BME280_humidity;BME280_pressure;Samples;Min_cycle;Max_cycle;Signal;HPM_P1;HPM_P2
2021/06/19 00:00:34;;;;;;;1.63;1.53;;;;;;;24.63;54.23;98614.31;5110253;27;42935;-74
2021/06/19 00:03:02;;;;;;;1.40;1.30;;;;;;;24.60;54.06;98603.06;5110317;27;39843;-72
2021/06/19 00:05:30;;;;;;;1.17;1.07;;;;;;;24.63;54.11;98608.91;5120614;27;41252;-71
2021/06/19 00:07:58;;;;;;;1.80;1.70;;;;;;;24.63;54.12;98602.66;5111113;27;43197;-70
2021/06/19 00:10:26;;;;;;;1.80;1.70;;;;;;;24.62;53.73;98604.50;5110219;27;42705;-73
2021/06/19 00:12:55;;;;;;;1.40;1.30;;;;;;;24.63;53.87;98608.06;5109938;28;40788;-72
2021/06/19 00:15:24;;;;;;;1.90;1.70;;;;;;;24.63;53.71;98610.78;5108785;28;40773;-73
2021/06/19 00:17:52;;;;;;;1.40;1.30;;;;;;;24.63;53.71;98622.44;5109814;27;42370;-73
2021/06/19 00:20:22;;;;;;;1.20;1.10;;;;;;;24.61;53.30;98627.22;5109588;27;43009;-70
2021/06/19 00:22:51;;;;;;;1.27;1.17;;;;;;;24.61;53.67;98620.94;5110458;27;40467;-71
2021/06/19 00:25:20;;;;;;;1.70;1.60;;;;;;;24.60;53.34;98630.13;5108523;28;41402;-71
2021/06/19 00:27:55;;;;;;;2.07;1.57;;;;;;;24.60;53.40;98633.66;5125869;27;42832;-72
2021/06/19 00:30:24;;;;;;;1.27;1.17;;;;;;;24.58;53.70;98632.19;5108526;28;42292;-71
2021/06/19 00:32:52;;;;;;;1.00;0.87;;;;;;;24.56;53.63;98637.78;5110434;27;40437;-70
2021/06/19 00:35:21;;;;;;;1.50;1.40;;;;;;;24.56;53.60;98645.06;5109874;27;41625;-74
2021/06/19 00:37:49;;;;;;;1.80;1.57;;;;;;;24.54;53.75;98641.72;5109804;27;42437;-74
2021/06/19 00:40:18;;;;;;;2.20;1.57;;;;;;;24.50;53.81;98635.81;5108147;28;41173;-73
2021/06/19 00:42:55;;;;;;;1.17;1.17;;;;;;;24.50;53.87;98635.81;5108068;28;39940;-73
2021/06/19 00:45:24;;;;;;;1.40;1.30;;;;;;;24.49;54.28;98639.56;5109373;27;42184;-73
2021/06/19 00:47:51;;;;;;;2.80;2.17;;;;;;;24.50;54.89;98630.41;5109586;27;43419;-73
2021/06/19 00:50:20;;;;;;;2.30;2.10;;;;;;;24.51;54.87;98629.38;5092426;28;20234;-71
2021/06/19 00:52:48;;;;;;;2.03;1.93;;;;;;;24.46;54.92;98623.72;5108683;28;39170;-71
2021/06/19 00:55:16;;;;;;;1.77;1.67;;;;;;;24.54;54.74;98625.47;5109231;27;41667;-73
2021/06/19 00:57:45;;;;;;;1.77;1.67;;;;;;;24.53;54.44;98634.63;5109688;27;42405;-70
2021/06/19 01:00:16;;;;;;;1.43;1.33;;;;;;;24.56;54.30;98650.47;5108017;28;41319;-71
2021/06/19 01:02:44;;;;;;;1.77;1.67;;;;;;;24.57;54.30;98646.75;5108799;28;39904;-71
2021/06/19 01:05:12;;;;;;;1.37;1.27;;;;;;;24.56;54.35;98656.75;5108886;27;41769;-73
2021/06/19 01:07:40;;;;;;;1.80;1.40;;;;;;;24.56;54.40;98661.31;5110065;27;42425;-71
2021/06/19 01:10:09;;;;;;;2.03;1.57;;;;;;;24.57;54.65;98663.00;5107985;28;42150;-71
2021/06/19 01:12:37;;;;;;;1.13;1.13;;;;;;;24.57;54.81;98655.72;5109792;27;40286;-71
2021/06/19 01:15:05;;;;;;;1.63;1.53;;;;;;;24.58;54.84;98676.34;5108089;28;42828;-73
2021/06/19 01:17:34;;;;;;;1.80;1.70;;;;;;;24.59;54.72;98678.03;5109659;27;42973;-71
2021/06/19 01:20:04;;;;;;;1.60;1.50;;;;;;;24.60;54.83;98678.88;5107538;28;42945;-73
2021/06/19 01:22:33;;;;;;;2.23;1.50;;;;;;;24.60;54.74;98685.09;5108702;27;39946;-73
2021/06/19 01:25:03;;;;;;;1.50;1.40;;;;;;;24.60;54.69;98681.56;5108668;27;41747;-73
2021/06/19 01:27:32;;;;;;;1.63;1.53;;;;;;;24.61;54.77;98684.06;5107134;28;42877;-73
2021/06/19 01:30:01;;;;;;;1.90;1.80;;;;;;;24.64;54.54;98674.72;5109226;27;42033;-72
2021/06/19 01:32:33;;;;;;;2.07;1.87;;;;;;;24.66;54.83;98683.50;5109207;27;40679;-71
2021/06/19 01:35:01;;;;;;;2.03;1.93;;;;;;;24.67;55.79;98680.63;5106820;28;42299;-72
2021/06/19 01:37:29;;;;;;;2.57;2.37;;;;;;;24.73;55.52;98689.03;5108992;27;43050;-73
2021/06/19 01:40:05;;;;;;;2.40;1.90;;;;;;;24.77;55.44;98690.31;5108874;27;41907;-71
2021/06/19 01:42:34;;;;;;;1.53;1.43;;;;;;;24.75;55.12;98676.09;5107755;28;40802;-73
2021/06/19 01:45:01;;;;;;;4.10;1.87;;;;;;;24.83;55.05;98684.97;5090064;28;41179;-74
2021/06/19 01:47:29;;;;;;;1.30;1.30;;;;;;;24.85;54.89;98676.66;5090375;28;41701;-74
2021/06/19 01:49:57;;;;;;;1.83;1.70;;;;;;;24.88;54.60;98678.97;5106922;28;41206;-74
2021/06/19 01:52:24;;;;;;;1.20;1.10;;;;;;;24.88;54.64;98674.41;5109767;27;40634;-74
2021/06/19 01:54:52;;;;;;;1.40;1.30;;;;;;;24.88;54.07;98677.09;5108858;27;41589;-71
2021/06/19 01:57:21;;;;;;;1.40;1.30;;;;;;;24.87;54.36;98675.41;5108977;27;43503;-72
2021/06/19 01:59:48;;;;;;;1.37;1.27;;;;;;;24.88;54.27;98681.69;5109527;27;42207;-74
2021/06/19 02:02:20;;;;;;;1.43;1.33;;;;;;;24.89;54.38;98683.38;5108788;27;39731;-72
2021/06/19 02:04:48;;;;;;;1.60;1.50;;;;;;;24.81;54.41;98675.38;5107913;28;41600;-72
2021/06/19 02:07:16;;;;;;;1.57;1.47;;;;;;;24.90;54.28;98679.63;5090336;28;42560;-73
2021/06/19 02:09:43;;;;;;;1.77;1.67;;;;;;;24.89;53.92;98688.78;5109447;27;41940;-73
2021/06/19 02:12:11;;;;;;;1.80;1.50;;;;;;;24.88;53.85;98687.94;5106788;28;40616;-74
2021/06/19 02:14:40;;;;;;;1.80;1.70;;;;;;;24.84;54.28;98680.41;5108941;27;42264;-74
2021/06/19 02:17:07;;;;;;;1.60;1.50;;;;;;;24.92;54.17;98691.13;5107765;28;42674;-72
2021/06/19 02:19:35;;;;;;;1.17;1.07;;;;;;;24.91;53.92;98687.56;5108116;27;42640;-71
2021/06/19 02:22:03;;;;;;;1.63;1.30;;;;;;;24.88;54.05;98681.69;5109361;27;39962;-73
2021/06/19 02:24:30;;;;;;;1.67;1.57;;;;;;;24.94;53.78;98691.81;5110470;28;41378;-71
2021/06/19 02:27:07;;;;;;;1.17;1.07;;;;;;;24.95;54.34;98693.47;5111306;28;42702;-73
2021/06/19 02:29:35;;;;;;;1.20;1.10;;;;;;;24.92;54.14;98689.25;5110263;28;42757;-72
2021/06/19 02:32:05;;;;;;;1.63;1.53;;;;;;;24.92;54.35;98700.09;5110888;28;39634;-72
2021/06/19 02:34:33;;;;;;;1.40;1.30;;;;;;;24.88;54.05;98697.94;5111846;27;41673;-71
2021/06/19 02:37:02;;;;;;;1.70;1.60;;;;;;;24.91;54.19;98702.97;5111746;27;43415;-71
2021/06/19 02:39:30;;;;;;;1.70;1.60;;;;;;;24.90;54.31;98701.28;5111624;27;42028;-74
2021/06/19 02:41:58;;;;;;;1.23;1.23;;;;;;;24.89;54.56;98705.03;5111838;27;40799;-70
2021/06/19 02:44:26;;;;;;;1.70;1.60;;;;;;;24.81;54.24;98697.03;5109837;28;40984;-73
2021/06/19 02:46:54;;;;;;;1.90;1.80;;;;;;;24.89;54.67;98710.44;5111935;27;43430;-72
2021/06/19 02:49:22;;;;;;;1.87;1.77;;;;;;;24.87;54.74;98712.50;5111397;27;42375;-72
2021/06/19 02:51:50;;;;;;;1.57;1.47;;;;;;;24.86;55.23;98713.53;5110588;28;39946;-72
2021/06/19 02:54:18;;;;;;;1.93;1.83;;;;;;;24.84;55.52;98712.91;5110205;28;41362;-73
2021/06/19 02:56:45;;;;;;;2.43;2.27;;;;;;;24.82;55.51;98709.56;5111481;27;42605;-71
2021/06/19 02:59:13;;;;;;;2.33;2.20;;;;;;;24.77;56.12;98698.44;5109785;28;42680;-72
2021/06/19 03:01:41;;;;;;;2.37;2.20;;;;;;;24.76;56.04;98702.16;5112196;27;40719;-72
2021/06/19 03:04:09;;;;;;;2.00;1.90;;;;;;;24.73;56.06;98697.16;5109741;27;41647;-73
2021/06/19 03:06:38;;;;;;;1.90;1.80;;;;;;;24.69;55.92;98700.22;5121768;27;42706;-73
2021/06/19 03:09:06;;;;;;;2.30;2.20;;;;;;;24.66;56.03;98688.94;5093229;28;42222;-73
2021/06/19 03:11:34;;;;;;;1.83;1.73;;;;;;;24.63;56.00;98681.19;5127625;27;40635;-71
2021/06/19 03:14:01;;;;;;;1.63;1.53;;;;;;;24.60;56.83;98671.56;5110976;27;42312;-72
2021/06/19 03:16:29;;;;;;;1.67;1.57;;;;;;;24.58;56.58;98676.34;5127136;27;42718;-73
2021/06/19 03:18:58;;;;;;;1.50;1.40;;;;;;;24.59;56.51;98677.19;5109196;28;41987;-75
2021/06/19 03:21:26;;;;;;;2.47;1.70;;;;;;;24.58;56.32;98676.34;5110228;27;40738;-73
2021/06/19 03:23:55;;;;;;;1.40;1.30;;;;;;;24.59;56.39;98671.78;5110567;28;40717;-71
2021/06/19 03:26:22;;;;;;;2.10;1.90;;;;;;;24.59;55.93;98675.31;5126872;27;42411;-73
2021/06/19 03:28:50;;;;;;;1.67;1.57;;;;;;;24.57;56.00;98685.50;5127066;27;42927;-72
2021/06/19 03:31:18;;;;;;;1.90;1.80;;;;;;;24.59;55.94;98694.28;5126918;27;40759;-72
2021/06/19 03:33:45;;;;;;;1.50;1.40;;;;;;;24.57;56.35;98690.91;5110086;27;41679;-73
2021/06/19 03:36:13;;;;;;;1.60;1.50;;;;;;;24.54;56.31;98687.72;5110244;27;43582;-72
2021/06/19 03:38:41;;;;;;;1.17;1.17;;;;;;;24.55;56.20;98698.38;5109297;28;41665;-72
2021/06/19 03:41:10;;;;;;;1.50;1.40;;;;;;;24.52;56.24;98703.31;5110872;27;40225;-71
2021/06/19 03:43:37;;;;;;;1.27;1.20;;;;;;;24.53;56.54;98707.72;5111192;27;41703;-73
2021/06/19 03:46:05;;;;;;;1.73;1.63;;;;;;;24.54;56.53;98706.69;5125866;27;42856;-73
2021/06/19 03:48:32;;;;;;;1.70;1.60;;;;;;;24.53;56.62;98703.13;5111021;27;41828;-72
2021/06/19 03:51:01;;;;;;;1.47;1.37;;;;;;;24.54;56.88;98704.81;5109867;27;39407;-71
2021/06/19 03:53:29;;;;;;;2.00;1.90;;;;;;;24.55;57.21;98698.38;5110794;27;42082;-73
2021/06/19 03:55:56;;;;;;;1.63;1.53;;;;;;;24.58;57.43;98689.06;5110168;27;42576;-73
2021/06/19 03:58:26;;;;;;;1.73;1.63;;;;;;;24.61;57.34;98691.34;5109034;28;41581;-73
2021/06/19 04:00:53;;;;;;;1.37;1.27;;;;;;;24.63;57.13;98703.69;5099294;28;40440;-70
2021/06/19 04:03:21;;;;;;;1.40;1.30;;;;;;;24.67;57.32;98714.97;5109477;27;41503;-72
2021/06/19 04:05:49;;;;;;;1.57;1.47;;;;;;;24.70;56.80;98718.16;5108033;27;43562;-72
2021/06/19 04:08:18;;;;;;;3.57;3.27;;;;;;;24.74;57.29;98718.59;5107775;28;42184;-71
2021/06/19 04:10:45;;;;;;;3.33;3.13;;;;;;;24.77;57.21;98711.97;5109526;27;40770;-71
2021/06/19 04:13:13;;;;;;;3.90;3.00;;;;;;;24.77;57.89;98717.38;5110415;27;41492;-73
2021/06/19 04:15:42;;;;;;;2.70;2.43;;;;;;;24.77;58.00;98717.38;5110027;27;43591;-74
2021/06/19 04:18:09;;;;;;;2.33;2.07;;;;;;;24.79;57.67;98726.16;5108968;28;42247;-71
2021/06/19 04:20:37;;;;;;;2.40;1.83;;;;;;;24.81;57.41;98726.81;5108164;28;41214;-73
2021/06/19 04:23:05;;;;;;;2.93;2.27;;;;;;;24.88;57.29;98735.88;5091822;28;41476;-75
2021/06/19 04:25:33;;;;;;;1.70;1.60;;;;;;;24.96;57.03;98725.81;5109184;27;43041;-74
2021/06/19 04:28:01;;;;;;;2.47;2.00;;;;;;;25.03;57.02;98723.16;5106061;28;41675;-75
2021/06/19 04:30:28;;;;;;;1.70;1.60;;;;;;;25.14;56.83;98730.78;5108401;27;39985;-74
2021/06/19 04:32:57;;;;;;;1.40;1.30;;;;;;;25.19;57.39;98731.06;5106927;28;41759;-72
2021/06/19 04:35:27;;;;;;;2.10;1.90;;;;;;;25.22;57.21;98727.94;5105750;28;41735;-77
2021/06/19 04:37:55;;;;;;;1.70;1.60;;;;;;;25.22;57.50;98721.72;5107514;27;42833;-75
2021/06/19 04:40:30;;;;;;;1.60;1.50;;;;;;;25.18;58.08;98721.25;5107594;27;39530;-76
2021/06/19 04:43:00;;;;;;;1.97;1.83;;;;;;;25.17;58.06;98719.56;5109140;27;41953;-74
2021/06/19 04:45:28;;;;;;;1.80;1.70;;;;;;;25.13;57.96;98723.69;5107966;27;43002;-73
2021/06/19 04:47:58;;;;;;;1.87;1.77;;;;;;;25.15;58.07;98727.03;5109341;27;42047;-73
2021/06/19 04:50:26;;;;;;;2.17;1.97;;;;;;;25.17;57.94;98735.84;5108646;28;39946;-77
2021/06/19 04:52:54;;;;;;;1.83;1.70;;;;;;;25.17;57.78;98743.13;5109745;27;41682;-72
2021/06/19 04:55:22;;;;;;;1.40;1.30;;;;;;;25.16;57.85;98739.56;5107778;28;43225;-73
2021/06/19 04:57:55;;;;;;;2.00;1.90;;;;;;;25.17;57.41;98737.69;5109651;27;42930;-76
2021/06/19 05:00:24;;;;;;;2.30;1.80;;;;;;;25.20;57.64;98740.88;5109665;27;39922;-76
2021/06/19 05:02:52;;;;;;;1.43;1.33;;;;;;;25.18;57.65;98731.25;5109656;27;42131;-75
2021/06/19 05:05:23;;;;;;;1.80;1.50;;;;;;;25.25;57.73;98743.00;5108384;28;42718;-72
2021/06/19 05:07:51;;;;;;;1.67;1.57;;;;;;;25.26;57.79;98739.25;5109961;27;42104;-74
2021/06/19 05:10:19;;;;;;;1.90;1.80;;;;;;;25.21;57.69;98737.13;5091186;28;40109;-77
2021/06/19 05:12:47;;;;;;;1.37;1.27;;;;;;;24.96;58.77;98741.22;5110086;27;41586;-74
2021/06/19 05:15:18;;;;;;;1.77;1.67;;;;;;;24.58;60.09;98741.34;5109474;27;43406;-75
2021/06/19 05:17:46;;;;;;;1.80;1.60;;;;;;;24.42;61.76;98746.94;5108122;28;42048;-74
2021/06/19 05:20:13;;;;;;;2.17;2.07;;;;;;;24.32;62.93;98752.63;5110229;27;39698;-75
2021/06/19 05:22:42;;;;;;;1.70;1.60;;;;;;;24.24;63.17;98770.81;5109220;28;41995;-75
2021/06/19 05:25:13;;;;;;;1.33;1.23;;;;;;;24.16;64.01;98774.41;5109037;27;42515;-78
2021/06/19 05:27:41;;;;;;;2.03;1.83;;;;;;;24.16;64.32;98776.28;5108944;27;43036;-74
2021/06/19 05:30:10;;;;;;;1.57;1.47;;;;;;;24.15;64.45;98780.00;5108506;28;39763;-75
2021/06/19 05:32:38;;;;;;;1.50;1.40;;;;;;;24.19;64.34;98792.16;5109364;27;41803;-77
2021/06/19 05:35:07;;;;;;;2.00;1.90;;;;;;;24.16;64.50;98789.81;5109334;27;42251;-75
2021/06/19 05:37:34;;;;;;;2.57;2.17;;;;;;;24.23;64.16;98812.44;5109845;27;42357;-77
2021/06/19 05:40:04;;;;;;;2.73;2.53;;;;;;;24.26;63.71;98817.47;5109397;27;40608;-80
2021/06/19 05:42:33;;;;;;;2.10;1.90;;;;;;;24.28;63.79;98831.66;5087439;28;40686;-75
2021/06/19 05:45:00;;;;;;;1.40;1.30;;;;;;;24.32;63.85;98827.59;5088874;28;43420;-75
2021/06/19 05:47:29;;;;;;;1.63;1.53;;;;;;;24.40;63.82;98840.19;5096577;28;42022;-71
2021/06/19 05:49:56;;;;;;;2.23;1.63;;;;;;;24.44;64.11;98836.94;5108296;28;40151;-76
2021/06/19 05:52:25;;;;;;;1.93;1.73;;;;;;;24.45;63.63;98838.63;5109884;27;40928;-78
2021/06/19 05:54:53;;;;;;;1.83;1.67;;;;;;;24.48;63.67;98834.72;5107942;28;42843;-73
2021/06/19 05:57:22;;;;;;;2.07;1.87;;;;;;;24.50;63.50;98833.47;5108245;27;42005;-75
2021/06/19 05:59:50;;;;;;;1.50;1.40;;;;;;;24.42;63.77;98833.56;5113395;27;40642;-72
2021/06/19 06:02:18;;;;;;;1.90;1.80;;;;;;;24.35;64.22;98838.03;5112194;28;39992;-76
2021/06/19 06:04:46;;;;;;;2.23;2.03;;;;;;;24.32;64.88;98849.22;5113334;27;42773;-77
2021/06/19 06:07:14;;;;;;;1.50;1.40;;;;;;;24.33;65.01;98840.09;5123806;27;42380;-76
2021/06/19 06:09:41;;;;;;;1.60;1.50;;;;;;;24.28;65.12;98832.50;5133308;27;40429;-71
2021/06/19 06:12:10;;;;;;;1.83;1.60;;;;;;;24.35;65.87;98838.03;5133445;27;42486;-77
2021/06/19 06:14:40;;;;;;;1.73;1.63;;;;;;;24.34;65.80;98826.38;5130813;27;42997;-77
2021/06/19 06:17:08;;;;;;;2.30;2.10;;;;;;;24.39;65.85;98830.38;5113560;27;43381;-77
2021/06/19 06:19:36;;;;;;;1.60;1.50;;;;;;;24.44;65.78;98820.69;5128835;27;39386;-78
2021/06/19 06:22:05;;;;;;;1.60;1.50;;;;;;;24.50;65.73;98817.22;5111355;28;40778;-75
2021/06/19 06:24:33;;;;;;;2.53;1.70;;;;;;;24.57;66.85;98820.06;5093466;28;42613;-75
2021/06/19 06:27:02;;;;;;;2.17;1.97;;;;;;;24.57;66.99;98820.88;5111049;28;42646;-77
2021/06/19 06:29:30;;;;;;;2.20;2.00;;;;;;;24.57;67.66;98820.88;5110962;28;39945;-77
2021/06/19 06:31:59;;;;;;;2.83;2.27;;;;;;;24.57;66.94;98837.13;5111869;27;41640;-74
2021/06/19 06:34:27;;;;;;;1.87;1.77;;;;;;;24.60;66.63;98847.56;5112065;27;42872;-79
2021/06/19 06:36:55;;;;;;;1.80;1.70;;;;;;;24.60;66.67;98855.69;5112378;27;43033;-77
2021/06/19 06:39:24;;;;;;;1.80;1.70;;;;;;;24.68;66.07;98854.78;5112505;27;40010;-74
2021/06/19 06:41:51;;;;;;;1.50;1.40;;;;;;;24.78;66.19;98854.50;5109494;28;41835;-76
2021/06/19 06:44:19;;;;;;;1.93;1.73;;;;;;;24.91;65.57;98854.69;5111924;27;43301;-74
2021/06/19 06:46:47;;;;;;;1.63;1.43;;;;;;;25.02;64.95;98856.97;5110471;28;42144;-76
2021/06/19 06:49:17;;;;;;;1.77;1.67;;;;;;;25.12;64.64;98841.25;5112411;27;40807;-77
2021/06/19 06:51:45;;;;;;;1.80;1.70;;;;;;;25.18;65.00;98840.50;5112054;27;42891;-77
2021/06/19 06:54:14;;;;;;;5.87;2.23;;;;;;;25.22;64.84;98849.13;5112716;27;41739;-76
2021/06/19 06:56:42;;;;;;;1.90;1.80;;;;;;;25.21;65.20;98845.56;5111989;27;42959;-76
2021/06/19 06:59:09;;;;;;;2.47;2.27;;;;;;;25.09;66.09;98852.50;5112343;27;40414;-76
2021/06/19 07:01:37;;;;;;;3.10;2.80;;;;;;;25.05;65.96;98859.31;5111133;27;41715;-73
2021/06/19 07:04:05;;;;;;;3.13;2.00;;;;;;;25.04;66.18;98854.91;5111476;27;42589;-74
2021/06/19 07:06:35;;;;;;;2.50;2.30;;;;;;;25.11;66.27;98853.13;5112085;27;42425;-76
2021/06/19 07:09:03;;;;;;;1.80;1.70;;;;;;;25.30;65.32;98852.53;5094028;28;39267;-76
2021/06/19 07:11:31;;;;;;;2.27;2.13;;;;;;;25.73;65.08;98858.06;5111472;27;42614;-73
2021/06/19 07:13:58;;;;;;;1.90;1.80;;;;;;;26.17;64.47;98848.91;5112617;27;42849;-75
2021/06/19 07:16:26;;;;;;;1.73;1.60;;;;;;;26.54;63.11;98854.03;5111151;27;42111;-74
2021/06/19 07:18:55;;;;;;;2.33;2.00;;;;;;;26.95;62.31;98861.44;5111739;27;39737;-75
2021/06/19 07:21:23;;;;;;;2.07;1.90;;;;;;;27.41;60.09;98873.38;5110902;27;41727;-74
2021/06/19 07:23:52;;;;;;;2.00;1.70;;;;;;;27.84;58.49;98870.41;5109849;28;42822;-76
2021/06/19 07:26:20;;;;;;;3.27;2.27;;;;;;;28.30;57.25;98869.66;5109743;28;42196;-72
2021/06/19 07:28:48;;;;;;;2.20;1.77;;;;;;;28.86;55.06;98865.44;5117602;27;39156;-74
2021/06/19 07:31:16;;;;;;;2.13;2.00;;;;;;;29.98;52.98;98866.94;5088853;28;40758;-77
2021/06/19 07:33:44;;;;;;;1.90;1.80;;;;;;;30.96;50.16;98876.19;5090760;28;43426;-75
2021/06/19 07:36:11;;;;;;;2.10;1.90;;;;;;;31.87;48.22;98888.22;5105725;28;42150;-74
2021/06/19 07:38:39;;;;;;;1.97;1.80;;;;;;;32.73;45.87;98896.00;5110639;27;40749;-73
2021/06/19 07:41:08;;;;;;;2.40;2.20;;;;;;;33.54;44.33;98901.41;5108347;28;41581;-74
2021/06/19 07:43:37;;;;;;;2.17;2.07;;;;;;;34.41;42.80;98884.69;5110826;27;42515;-77
2021/06/19 07:46:05;;;;;;;1.67;1.53;;;;;;;35.79;39.96;98904.94;5109252;28;42235;-75
2021/06/19 07:48:33;;;;;;;2.27;2.03;;;;;;;37.22;37.03;98924.47;5109873;28;39686;-76
2021/06/19 07:51:01;;;;;;;2.70;2.37;;;;;;;38.51;34.88;98924.69;5109437;28;41614;-76
2021/06/19 07:53:28;;;;;;;2.50;2.30;;;;;;;39.69;33.07;98935.38;5110339;27;41672;-76
2021/06/19 07:55:56;;;;;;;2.60;2.40;;;;;;;40.58;31.43;98933.50;5092293;28;41382;-77
2021/06/19 07:58:26;;;;;;;2.38;2.17;;;;;;;41.62;30.49;98942.28;5109479;28;40646;-75
2021/06/19 08:00:54;;;;;;;2.03;1.92;;;;;;;42.20;29.10;98949.31;5109757;28;42425;-74
2021/06/19 08:03:23;;;;;;;2.30;1.80;;;;;;;42.53;28.59;98946.66;5110429;27;43177;-75
2021/06/19 08:05:50;;;;;;;1.80;1.70;;;;;;;42.38;29.13;98941.31;5110629;27;42682;-74
2021/06/19 08:08:18;;;;;;;1.92;1.83;;;;;;;41.32;28.68;98944.25;5109294;28;39841;-76
2021/06/19 08:10:48;;;;;;;2.22;2.08;;;;;;;40.32;31.19;98930.09;5110280;27;42381;-78
2021/06/19 08:13:16;;;;;;;2.50;2.30;;;;;;;40.09;31.44;98910.22;5107762;28;43421;-73
2021/06/19 08:15:45;;;;;;;2.30;2.10;;;;;;;40.60;30.74;98917.38;5110736;27;42140;-75
2021/06/19 08:18:13;;;;;;;1.98;1.88;;;;;;;41.64;28.77;98940.03;5126619;27;40040;-72
2021/06/19 08:20:40;;;;;;;1.95;1.85;;;;;;;42.63;27.50;98941.72;5108298;27;41622;-74
2021/06/19 08:23:08;;;;;;;2.00;1.90;;;;;;;43.46;25.66;98958.69;5109104;28;42332;-75
2021/06/19 08:25:36;;;;;;;2.13;1.92;;;;;;;44.03;25.35;98946.91;5109460;27;43050;-76
2021/06/19 08:28:04;;;;;;;1.83;1.73;;;;;;;44.17;24.21;98955.28;5109010;28;39858;-75
2021/06/19 08:30:32;;;;;;;1.60;1.50;;;;;;;43.93;25.05;98946.28;5109334;27;41244;-74
2021/06/19 08:33:01;;;;;;;2.42;2.33;;;;;;;43.67;26.13;98938.47;5109770;27;43453;-78
2021/06/19 08:35:29;;;;;;;2.08;1.95;;;;;;;43.25;25.01;98933.16;5109864;27;42721;-77
2021/06/19 08:37:57;;;;;;;2.00;1.90;;;;;;;43.00;26.26;98918.53;5109383;27;39857;-73
2021/06/19 08:40:25;;;;;;;1.77;1.67;;;;;;;43.29;26.77;98909.09;5109093;28;40751;-77
2021/06/19 08:42:53;;;;;;;1.60;1.50;;;;;;;43.92;25.63;98922.31;5108523;28;41398;-76
2021/06/19 08:45:22;;;;;;;2.20;2.10;;;;;;;44.67;23.81;98935.66;5109047;28;42682;-74
2021/06/19 08:47:50;;;;;;;2.22;2.13;;;;;;;45.61;23.73;98929.84;5108143;28;39890;-77
2021/06/19 08:50:19;;;;;;;2.00;1.90;;;;;;;46.65;23.05;98924.41;5107934;28;41353;-77
2021/06/19 08:52:47;;;;;;;1.60;1.50;;;;;;;47.69;21.78;98925.78;5110093;27;42415;-75
2021/06/19 08:55:17;;;;;;;1.77;1.67;;;;;;;48.59;20.64;98925.34;5107783;28;42197;-75
2021/06/19 08:57:46;;;;;;;1.77;1.67;;;;;;;49.28;19.66;98931.09;5108495;28;40339;-76
2021/06/19 09:00:16;;;;;;;1.70;1.60;;;;;;;49.79;18.86;98942.84;5109774;27;41509;-77
2021/06/19 09:02:46;;;;;;;1.65;1.55;;;;;;;49.91;19.18;98925.97;5109892;27;43437;-76
2021/06/19 09:05:17;;;;;;;1.02;1.02;;;;;;;50.02;17.47;98933.94;5108283;28;41907;-75
2021/06/19 09:07:48;;;;;;;1.80;1.70;;;;;;;49.81;18.40;98932.06;5109108;28;40251;-76
2021/06/19 09:10:27;;;;;;;1.77;1.67;;;;;;;49.77;17.98;98925.47;5108632;27;41441;-75
2021/06/19 09:13:07;;;;;;;1.70;1.60;;;;;;;49.80;17.74;98919.16;5109827;27;43522;-76
2021/06/19 09:15:38;;;;;;;1.63;1.52;;;;;;;50.04;18.45;98911.88;5108127;28;42650;-76
2021/06/19 09:18:09;;;;;;;1.77;1.67;;;;;;;50.55;18.19;98919.50;5109516;27;40909;-78
2021/06/19 09:20:39;;;;;;;1.63;1.52;;;;;;;51.09;18.14;98912.50;5120655;27;41980;-77
2021/06/19 09:23:12;;;;;;;2.85;1.77;;;;;;;51.43;17.64;98913.84;5128687;27;42084;-77
2021/06/19 09:25:40;;;;;;;1.95;1.85;;;;;;;51.61;17.67;98903.81;5111949;27;42153;-73
2021/06/19 09:28:10;;;;;;;1.60;1.50;;;;;;;51.87;17.29;98909.69;5101960;28;38911;-76
2021/06/19 09:30:40;;;;;;;2.00;1.90;;;;;;;52.22;17.62;98900.38;5088899;28;42097;-78
2021/06/19 09:33:10;;;;;;;1.50;1.40;;;;;;;52.29;16.89;98906.22;5087953;28;42805;-74
2021/06/19 09:35:40;;;;;;;1.85;1.75;;;;;;;51.91;16.45;98910.63;5098665;28;43100;-75
2021/06/19 09:38:11;;;;;;;1.85;1.75;;;;;;;51.25;17.00;98905.72;5109751;27;39894;-77
2021/06/19 09:40:40;;;;;;;2.15;1.95;;;;;;;50.69;17.66;98904.16;5108072;28;42520;-75
2021/06/19 09:43:17;;;;;;;1.67;1.58;;;;;;;49.32;18.40;98889.00;5109275;27;42798;-77
2021/06/19 09:45:59;;;;;;;1.98;1.88;;;;;;;48.51;19.40;98884.88;5088932;28;42432;-76
2021/06/19 09:48:30;;;;;;;1.83;1.73;;;;;;;48.13;19.99;98885.03;5088134;28;39981;-76
2021/06/19 09:51:13;;;;;;;1.75;1.65;;;;;;;48.40;19.43;98880.00;5097435;28;41585;-76
2021/06/19 09:53:44;;;;;;;2.15;1.55;;;;;;;49.03;18.47;98884.34;5109547;27;43215;-75
2021/06/19 09:56:12;;;;;;;1.83;1.73;;;;;;;49.83;18.41;98895.88;5108031;27;42933;-78
2021/06/19 09:58:42;;;;;;;1.63;1.52;;;;;;;50.59;17.20;98906.31;5108903;27;40520;-80
2021/06/19 10:01:10;;;;;;;1.73;1.63;;;;;;;50.73;17.21;98899.44;5088336;28;41527;-82
2021/06/19 10:03:55;;;;;;;1.83;1.73;;;;;;;50.74;17.58;98895.44;5089518;28;42529;-75
2021/06/19 10:06:23;;;;;;;2.00;1.90;;;;;;;50.14;17.32;98894.44;5098248;28;42006;-75
2021/06/19 10:08:53;;;;;;;2.08;1.95;;;;;;;49.84;18.56;98883.44;5109386;27;41526;-78
2021/06/19 10:11:25;;;;;;;2.00;1.90;;;;;;;49.42;18.32;98880.09;5108074;27;42239;-72
2021/06/19 10:13:54;;;;;;;1.58;1.48;;;;;;;48.29;18.81;98868.38;5109440;27;42642;-76
2021/06/19 10:16:24;;;;;;;2.15;2.05;;;;;;;47.18;20.65;98837.03;5087843;28;42992;-77
2021/06/19 10:18:53;;;;;;;2.67;1.60;;;;;;;46.49;21.55;98854.03;5070779;28;39779;-76
2021/06/19 10:21:23;;;;;;;2.05;1.95;;;;;;;45.79;22.55;98824.34;5086363;28;41752;-77
2021/06/19 10:23:52;;;;;;;2.28;2.10;;;;;;;45.53;22.43;98838.28;5088948;28;43617;-75
2021/06/19 10:26:24;;;;;;;2.10;1.90;;;;;;;45.28;23.01;98831.44;5085980;28;41543;-82
2021/06/19 10:28:57;;;;;;;2.03;1.92;;;;;;;44.83;23.06;98825.16;5108889;27;39756;-79
2021/06/19 10:31:26;;;;;;;2.05;1.95;;;;;;;44.29;22.82;98827.09;5108573;27;42667;-79
2021/06/19 10:33:54;;;;;;;2.08;1.80;;;;;;;43.72;23.21;98817.56;5106844;28;42718;-79
2021/06/19 10:36:37;;;;;;;2.50;2.15;;;;;;;43.65;23.97;98812.41;5105938;28;42886;-78
2021/06/19 10:39:06;;;;;;;2.10;2.00;;;;;;;43.84;23.08;98808.63;5108877;27;39757;-77
2021/06/19 10:41:50;;;;;;;1.90;1.80;;;;;;;43.67;24.45;98796.16;5107803;28;40716;-77
2021/06/19 10:44:52;;;;;;;2.25;2.15;;;;;;;42.87;25.06;98795.91;5091590;28;42209;-78
2021/06/19 10:47:21;;;;;;;1.88;1.77;;;;;;;41.94;25.70;98789.38;5112123;27;42102;-78
2021/06/19 10:49:50;;;;;;;1.70;1.60;;;;;;;41.16;27.36;98778.81;5111820;27;39772;-75
2021/06/19 10:52:30;;;;;;;1.57;1.47;;;;;;;40.59;28.25;98776.88;5110488;28;41875;-77
2021/06/19 10:55:22;;;;;;;1.90;1.80;;;;;;;40.27;29.58;98763.59;5127528;27;43445;-75
2021/06/19 10:57:52;;;;;;;2.40;2.20;;;;;;;39.92;28.80;98760.00;5081210;28;41317;-77
2021/06/19 11:00:25;;;;;;;1.77;1.67;;;;;;;39.54;28.36;98758.03;5093457;28;40317;-73
2021/06/19 11:02:54;;;;;;;2.07;1.97;;;;;;;39.25;29.59;98746.78;5111596;27;42459;-78
2021/06/19 11:05:58;;;;;;;2.67;2.47;;;;;;;39.03;30.93;98738.88;5111556;27;43311;-79
2021/06/19 11:08:27;;;;;;;1.73;1.63;;;;;;;38.84;31.35;98732.25;5104050;28;42527;-76
2021/06/19 11:10:58;;;;;;;2.03;1.90;;;;;;;38.73;31.42;98721.22;5111983;27;39571;-76
2021/06/19 11:13:46;;;;;;;2.30;2.10;;;;;;;38.66;32.28;98720.69;5110917;27;41507;-75
2021/06/19 11:16:53;;;;;;;2.37;2.27;;;;;;;38.55;31.49;98721.84;5111277;27;42829;-75
2021/06/19 11:19:42;;;;;;;1.87;1.77;;;;;;;38.42;32.60;98714.94;5110952;27;42033;-79
2021/06/19 11:22:27;;;;;;;2.00;1.90;;;;;;;38.15;31.58;98714.41;5092282;28;40318;-75
2021/06/19 11:25:22;;;;;;;2.97;2.77;;;;;;;37.82;31.57;98699.22;5111172;27;41501;-77
2021/06/19 11:27:54;;;;;;;2.03;1.83;;;;;;;37.55;32.83;98682.03;5093508;28;42696;-76
2021/06/19 11:30:56;;;;;;;2.67;2.37;;;;;;;37.23;33.08;98669.25;5109428;28;42860;-75
2021/06/19 11:33:47;;;;;;;2.60;2.40;;;;;;;37.06;34.40;98665.88;5091578;28;39639;-72
2021/06/19 11:36:38;;;;;;;2.00;1.90;;;;;;;37.12;33.39;98664.78;5089340;28;41786;-73
2021/06/19 11:39:12;;;;;;;1.90;1.80;;;;;;;37.12;34.12;98650.97;5090547;28;42709;-76
2021/06/19 11:41:46;;;;;;;2.50;2.30;;;;;;;37.17;33.29;98664.84;5096534;28;41367;-80
2021/06/19 11:44:33;;;;;;;1.90;1.80;;;;;;;37.35;31.98;98661.53;5110404;28;38868;-78
2021/06/19 11:47:08;;;;;;;2.43;2.23;;;;;;;37.63;31.68;98662.16;5109900;28;41634;-76